createdAt,value
2018-05-15T00:04:23.473Z,58.29
2018-05-15T00:09:25.933Z,58.52
2018-05-15T00:14:28.440Z,58.59
2018-05-15T00:19:30.922Z,58.94
2018-05-15T00:24:33.465Z,58.78
2018-05-15T00:29:35.963Z,59.49
2018-05-15T00:34:38.503Z,59.60
2018-05-15T00:39:41.018Z,60.11
2018-05-15T00:44:43.506Z,60.20
2018-05-15T00:49:45.997Z,60.66
2018-05-15T00:54:48.499Z,60.91
2018-05-15T00:59:50.999Z,61.04
2018-05-15T01:04:53.609Z,60.74
2018-05-15T01:09:56.605Z,60.87
2018-05-15T01:14:59.116Z,60.95
2018-05-15T01:20:01.590Z,61.29
2018-05-15T01:25:04.084Z,61.08
2018-05-15T01:30:06.566Z,61.54
2018-05-15T01:35:09.049Z,61.80
2018-05-15T01:40:11.542Z,61.98
2018-05-15T01:45:14.343Z,61.91
2018-05-15T01:50:17.477Z,62.54
2018-05-15T01:55:20.019Z,62.54
2018-05-15T02:00:22.524Z,62.66
2018-05-15T02:05:25.070Z,62.78
2018-05-15T02:10:27.619Z,62.88
2018-05-15T02:15:30.140Z,63.04
2018-05-15T02:20:32.688Z,63.71
2018-05-15T02:25:35.185Z,64.13
2018-05-15T02:30:37.695Z,64.18
2018-05-15T02:35:40.177Z,64.50
2018-05-15T02:40:42.759Z,64.16
2018-05-15T02:45:46.905Z,64.09
2018-05-15T02:50:49.646Z,63.94
2018-05-15T02:55:52.168Z,63.95
2018-05-15T03:00:54.798Z,64.48
2018-05-15T03:05:58.015Z,65.16
2018-05-15T03:11:02.836Z,65.51
2018-05-15T03:16:05.351Z,65.72
2018-05-15T03:21:07.855Z,65.91
2018-05-15T03:26:10.371Z,66.04
2018-05-15T03:31:13.915Z,65.83
2018-05-15T03:36:20.093Z,65.67
2018-05-15T03:41:23.212Z,65.28
2018-05-15T03:46:25.736Z,64.96
2018-05-15T03:56:33.057Z,64.29
2018-05-15T04:01:47.745Z,63.07
2018-05-15T04:07:02.052Z,61.21
2018-05-15T04:12:04.564Z,60.19
2018-05-15T04:17:07.986Z,58.83
2018-05-15T04:22:10.514Z,58.34
2018-05-15T04:27:12.981Z,57.87
2018-05-15T04:32:15.480Z,46.69
2018-05-15T04:37:18.087Z,38.94
2018-05-15T04:42:20.571Z,34.11
2018-05-15T04:47:23.105Z,31.25
2018-05-15T04:52:25.571Z,28.72
2018-05-15T04:57:28.084Z,27.20
2018-05-15T05:02:30.622Z,27.21
2018-05-15T05:07:34.510Z,25.18
2018-05-15T05:12:37.027Z,23.40
2018-05-15T05:17:39.532Z,25.35
2018-05-15T05:22:42.048Z,25.03
2018-05-15T05:27:44.523Z,25.29
2018-05-15T05:32:47.090Z,25.66
2018-05-15T05:37:49.707Z,25.23
2018-05-15T05:42:52.366Z,24.15
2018-05-15T05:47:55.375Z,24.58
2018-05-15T05:52:58.000Z,25.14
2018-05-15T05:58:00.815Z,23.08
2018-05-15T06:03:03.377Z,23.93
2018-05-15T06:08:05.871Z,24.19
2018-05-15T06:13:08.354Z,23.62
2018-05-15T06:18:10.831Z,23.84
2018-05-15T06:23:13.324Z,23.98
2018-05-15T06:28:15.795Z,21.81
2018-05-15T06:33:18.337Z,22.16
2018-05-15T06:38:20.875Z,21.72
2018-05-15T06:43:23.507Z,20.62
2018-05-15T06:48:26.039Z,19.75
2018-05-15T06:53:28.554Z,20.78
2018-05-15T06:58:31.086Z,18.99
2018-05-15T07:03:33.559Z,19.27
2018-05-15T07:08:36.032Z,22.01
2018-05-15T07:13:38.558Z,18.67
2018-05-15T07:18:41.024Z,18.84
2018-05-15T07:23:43.515Z,20.47
2018-05-15T07:28:46.070Z,22.92
2018-05-15T07:33:48.684Z,23.84
2018-05-15T07:38:51.299Z,24.48
2018-05-15T07:43:53.842Z,24.60
2018-05-15T07:48:56.415Z,23.73
2018-05-15T07:53:58.955Z,25.71
2018-05-15T07:59:01.447Z,22.88
2018-05-15T08:04:03.937Z,27.32
2018-05-15T08:09:06.473Z,27.09
2018-05-15T08:14:08.956Z,26.16
2018-05-15T08:19:11.459Z,22.46
2018-05-15T08:24:13.963Z,24.41
2018-05-15T08:29:16.505Z,22.48
2018-05-15T08:34:19.107Z,20.96
2018-05-15T08:39:21.663Z,21.29
2018-05-15T08:44:24.216Z,23.10
2018-05-15T08:49:26.727Z,25.23
2018-05-15T08:54:29.247Z,23.54
2018-05-15T08:59:31.787Z,22.98
2018-05-15T09:04:34.277Z,21.52
2018-05-15T09:09:36.787Z,22.01
2018-05-15T09:14:39.323Z,22.43
2018-05-15T09:19:41.812Z,24.13
2018-05-15T09:24:44.375Z,21.44
2018-05-15T09:29:46.844Z,19.76
2018-05-15T09:34:49.366Z,19.71
2018-05-15T09:39:51.969Z,20.26
2018-05-15T09:44:54.488Z,24.62
2018-05-15T09:49:57.929Z,24.31
2018-05-15T09:55:00.424Z,22.91
2018-05-15T10:00:02.926Z,25.79
2018-05-15T10:05:05.400Z,26.41
2018-05-15T10:10:07.908Z,26.99
2018-05-15T10:15:10.403Z,26.83
2018-05-15T10:20:12.914Z,26.63
2018-05-15T10:25:15.437Z,27.86
2018-05-15T10:30:18.032Z,28.44
2018-05-15T10:35:20.601Z,29.16
2018-05-15T10:40:23.458Z,29.48
2018-05-15T10:45:25.963Z,29.46
2018-05-15T10:50:28.499Z,27.52
2018-05-15T10:55:30.987Z,27.23
2018-05-15T11:00:33.463Z,27.79
2018-05-15T11:05:35.976Z,28.45
2018-05-15T11:10:38.475Z,28.71
2018-05-15T11:15:40.942Z,27.86
2018-05-15T11:20:55.188Z,27.37
2018-05-15T11:25:57.873Z,27.58
2018-05-15T11:31:00.433Z,27.98
2018-05-15T11:36:03.083Z,28.75
2018-05-15T11:41:05.427Z,28.00
2018-05-15T11:46:07.911Z,27.53
2018-05-15T11:51:11.065Z,27.94
2018-05-15T11:56:12.862Z,28.66
2018-05-15T12:01:15.380Z,28.21
2018-05-15T12:06:17.895Z,28.62
2018-05-15T12:11:20.739Z,28.97
2018-05-15T12:16:23.587Z,29.05
2018-05-15T12:21:26.142Z,29.51
2018-05-15T12:26:28.625Z,28.80
2018-05-15T12:31:31.401Z,28.49
2018-05-15T12:36:33.955Z,28.43
2018-05-15T12:41:36.591Z,28.89
2018-05-15T12:46:39.091Z,28.58
2018-05-15T12:51:41.546Z,28.32
2018-05-15T12:56:44.121Z,27.84
2018-05-15T13:01:46.713Z,28.60
2018-05-15T13:06:49.115Z,28.87
2018-05-15T13:11:51.636Z,28.36
2018-05-15T13:16:54.190Z,28.64
2018-05-15T13:21:56.693Z,28.36
2018-05-15T13:26:59.198Z,28.45
2018-05-15T13:32:01.666Z,28.06
2018-05-15T13:37:04.150Z,29.00
2018-05-15T13:42:06.647Z,30.28
2018-05-15T13:47:09.156Z,34.67
2018-05-15T13:52:11.772Z,33.88
2018-05-15T13:57:18.379Z,36.10
2018-05-15T14:02:21.002Z,35.00
2018-05-15T14:07:23.463Z,35.49
2018-05-15T14:12:27.320Z,34.34
2018-05-15T14:17:29.880Z,34.24
2018-05-15T14:22:32.398Z,33.79
2018-05-15T14:27:34.869Z,34.12
2018-05-15T14:32:37.373Z,35.03
2018-05-15T14:37:40.020Z,35.60
2018-05-15T14:42:54.325Z,37.37
2018-05-15T14:47:57.586Z,38.75
2018-05-15T14:53:00.091Z,40.98
2018-05-15T14:58:02.608Z,47.11
2018-05-15T15:03:05.131Z,53.63
2018-05-15T15:13:27.583Z,64.75
2018-05-15T15:18:30.049Z,70.91
2018-05-15T15:23:32.538Z,74.16
2018-05-15T15:28:35.017Z,70.66
2018-05-15T15:33:37.631Z,70.41
2018-05-15T15:38:40.314Z,69.75
2018-05-15T15:43:43.132Z,70.55
2018-05-15T15:48:45.685Z,71.58
2018-05-15T15:53:48.194Z,72.49
2018-05-15T15:58:51.030Z,73.71
2018-05-15T16:03:53.537Z,75.16
2018-05-15T16:08:56.061Z,75.44
2018-05-15T16:13:58.590Z,75.67
2018-05-15T16:19:01.120Z,75.14
2018-05-15T16:24:03.655Z,74.90
2018-05-15T16:29:06.140Z,75.48
2018-05-15T16:34:08.946Z,76.46
2018-05-15T16:39:11.628Z,75.56
2018-05-15T16:44:14.167Z,76.21
2018-05-15T16:49:16.686Z,75.11
2018-05-15T16:54:19.199Z,74.34
2018-05-15T16:59:21.701Z,75.59
2018-05-15T17:04:24.198Z,74.37
2018-05-15T17:09:26.762Z,74.78
2018-05-15T17:14:29.351Z,73.63
2018-05-15T17:19:31.863Z,73.62
2018-05-15T17:24:34.390Z,73.10
2018-05-15T17:29:37.000Z,72.31
2018-05-15T17:34:41.252Z,72.65
2018-05-15T17:39:44.142Z,72.04
2018-05-15T17:44:46.646Z,71.79
2018-05-15T17:49:49.252Z,73.26
2018-05-15T17:54:51.798Z,73.61
2018-05-15T17:59:54.327Z,72.93
2018-05-15T18:04:56.802Z,73.00
2018-05-15T18:09:59.664Z,74.55
2018-05-15T18:15:02.184Z,76.12
2018-05-15T18:20:04.705Z,76.75
2018-05-15T18:25:07.216Z,76.85
2018-05-15T18:30:09.795Z,76.73
2018-05-15T18:35:12.289Z,77.46
2018-05-15T18:40:14.772Z,77.88
2018-05-15T18:45:17.422Z,78.12
2018-05-15T18:50:19.881Z,78.52
2018-05-15T18:55:22.603Z,77.86
2018-05-15T19:00:25.079Z,78.23
2018-05-15T19:05:27.608Z,77.60
2018-05-15T19:10:30.103Z,78.27
2018-05-15T19:15:35.078Z,78.65
2018-05-15T19:20:59.655Z,78.66
2018-05-15T19:26:20.908Z,78.78
2018-05-15T19:31:27.026Z,78.96
2018-05-15T19:36:35.218Z,79.29
2018-05-15T19:41:49.087Z,79.73
2018-05-15T19:46:59.373Z,79.92
2018-05-15T19:52:04.166Z,79.93
2018-05-15T19:57:07.001Z,80.05
2018-05-15T20:02:09.488Z,80.40
2018-05-15T20:07:12.611Z,80.21
2018-05-15T20:12:15.212Z,80.43
2018-05-15T20:17:18.551Z,80.36
2018-05-15T20:22:21.075Z,80.25
2018-05-15T20:27:23.658Z,80.30
2018-05-15T20:32:26.187Z,80.14
2018-05-15T20:37:28.676Z,79.96
2018-05-15T20:42:31.267Z,80.02
2018-05-15T20:47:33.836Z,80.31
2018-05-15T20:52:36.335Z,80.34
2018-05-15T20:57:38.925Z,80.61
2018-05-15T21:02:41.531Z,80.84
2018-05-15T21:07:44.128Z,80.83
2018-05-15T21:12:46.817Z,81.30
2018-05-15T21:17:49.328Z,81.38
2018-05-15T21:22:51.912Z,81.19
2018-05-15T21:27:54.410Z,81.29
2018-05-15T21:32:57.015Z,81.46
2018-05-15T21:37:59.567Z,81.48
2018-05-15T21:43:02.225Z,81.67
2018-05-15T21:48:04.693Z,81.72
2018-05-15T21:53:07.248Z,81.87
2018-05-15T21:58:10.581Z,82.17
2018-05-15T22:03:13.186Z,82.17
2018-05-15T22:08:15.779Z,82.26
2018-05-15T22:13:30.205Z,82.26
2018-05-15T22:18:44.671Z,82.52
2018-05-15T22:23:46.628Z,82.92
2018-05-15T22:28:49.179Z,83.03
2018-05-15T22:33:51.654Z,83.12
2018-05-15T22:38:54.176Z,83.18
2018-05-15T22:43:56.696Z,83.28
2018-05-15T22:48:59.905Z,83.30
2018-05-15T22:54:02.722Z,83.71
2018-05-15T22:59:05.261Z,83.77
2018-05-15T23:04:07.866Z,83.94
2018-05-15T23:09:10.387Z,83.87
2018-05-15T23:14:12.920Z,83.88
2018-05-15T23:19:15.451Z,83.71
2018-05-15T23:24:17.958Z,83.59
2018-05-15T23:29:20.553Z,83.54
2018-05-15T23:34:22.940Z,83.51
2018-05-15T23:39:25.447Z,83.64
2018-05-15T23:44:27.967Z,83.54
2018-05-15T23:49:30.526Z,83.97
2018-05-15T23:54:33.023Z,83.57
2018-05-15T23:59:35.540Z,83.49
